Craven, South Dakota
Current Conditions -  °F | °C
As of 10:53 AM on Sunday 23 Nov 2014 (Local Time) from KABR Reporting Station
Overcast Overcast  
Wind Chill: 33°   Ceiling: 4500
Heat Index: 39°   Visibility: 10mi
Dew Point: 31°   Wind: 9mph
Humidity: 73%   Direction: 270°W
Pressure: 29.55"   Gusts: NA
Location:  45.4188°N, 99.0275°W
Report Text: KABR 231653Z AUTO 27008KT 10SM OVC045 04/M01 A2955 RMK AO2 SLP018 T00391006
Loading
Personal Weather Stations






























Interactive Weather Map New forecast layout! Learn more

10-Day Weather Forecast

Advertisements
Track Severe Weather on mobile